sensor_id;sensor_type;location;lat;lon;timestamp;temperature;humidity
75685;HTU21D;64298;46.050;38.164;2024-02-26T00:00:51;2.60;59.67
75685;HTU21D;64298;46.050;38.164;2024-02-26T00:03:17;2.56;59.83
75685;HTU21D;64298;46.050;38.164;2024-02-26T00:05:43;2.51;60.22
75685;HTU21D;64298;46.050;38.164;2024-02-26T00:08:09;2.47;60.05
75685;HTU21D;64298;46.050;38.164;2024-02-26T00:10:35;2.45;60.01
75685;HTU21D;64298;46.050;38.164;2024-02-26T00:13:01;2.44;60.41
75685;HTU21D;64298;46.050;38.164;2024-02-26T00:15:27;2.41;60.48
75685;HTU21D;64298;46.050;38.164;2024-02-26T00:17:53;2.38;60.44
75685;HTU21D;64298;46.050;38.164;2024-02-26T00:20:19;2.31;60.99
75685;HTU21D;64298;46.050;38.164;2024-02-26T00:22:45;2.30;60.96
75685;HTU21D;64298;46.050;38.164;2024-02-26T00:25:11;2.26;61.17
75685;HTU21D;64298;46.050;38.164;2024-02-26T00:27:38;2.24;61.09
75685;HTU21D;64298;46.050;38.164;2024-02-26T00:30:06;2.22;61.17
75685;HTU21D;64298;46.050;38.164;2024-02-26T00:32:32;2.19;61.25
75685;HTU21D;64298;46.050;38.164;2024-02-26T00:34:58;2.17;61.12
75685;HTU21D;64298;46.050;38.164;2024-02-26T00:37:24;2.16;60.90
75685;HTU21D;64298;46.050;38.164;2024-02-26T00:39:50;2.13;61.46
75685;HTU21D;64298;46.050;38.164;2024-02-26T00:42:16;2.10;61.54
75685;HTU21D;64298;46.050;38.164;2024-02-26T00:44:42;2.05;61.81
75685;HTU21D;64298;46.050;38.164;2024-02-26T00:47:08;1.98;62.05
75685;HTU21D;64298;46.050;38.164;2024-02-26T00:49:34;1.96;61.76
75685;HTU21D;64298;46.050;38.164;2024-02-26T00:52:00;1.95;61.99
75685;HTU21D;64298;46.050;38.164;2024-02-26T00:54:26;1.95;61.76
75685;HTU21D;64298;46.050;38.164;2024-02-26T00:56:52;1.95;61.74
75685;HTU21D;64298;46.050;38.164;2024-02-26T00:59:18;1.92;61.92
75685;HTU21D;64298;46.050;38.164;2024-02-26T01:01:44;1.86;62.10
75685;HTU21D;64298;46.050;38.164;2024-02-26T01:04:10;1.83;62.30
75685;HTU21D;64298;46.050;38.164;2024-02-26T01:06:36;1.81;62.51
75685;HTU21D;64298;46.050;38.164;2024-02-26T01:09:01;1.78;62.41
75685;HTU21D;64298;46.050;38.164;2024-02-26T01:11:27;1.78;62.50
75685;HTU21D;64298;46.050;38.164;2024-02-26T01:13:54;1.73;62.76
75685;HTU21D;64298;46.050;38.164;2024-02-26T01:16:23;1.70;62.69
75685;HTU21D;64298;46.050;38.164;2024-02-26T01:18:49;1.69;62.70
75685;HTU21D;64298;46.050;38.164;2024-02-26T01:21:15;1.70;62.66
75685;HTU21D;64298;46.050;38.164;2024-02-26T01:23:41;1.66;62.80
75685;HTU21D;64298;46.050;38.164;2024-02-26T01:26:08;1.63;62.95
75685;HTU21D;64298;46.050;38.164;2024-02-26T01:28:34;1.61;63.04
75685;HTU21D;64298;46.050;38.164;2024-02-26T01:30:59;1.60;62.86
75685;HTU21D;64298;46.050;38.164;2024-02-26T01:33:26;1.58;62.89
75685;HTU21D;64298;46.050;38.164;2024-02-26T01:35:52;1.55;63.06
75685;HTU21D;64298;46.050;38.164;2024-02-26T01:38:18;1.52;63.12
75685;HTU21D;64298;46.050;38.164;2024-02-26T01:40:45;1.48;63.41
75685;HTU21D;64298;46.050;38.164;2024-02-26T01:43:11;1.45;63.39
75685;HTU21D;64298;46.050;38.164;2024-02-26T01:45:36;1.41;63.35
75685;HTU21D;64298;46.050;38.164;2024-02-26T01:48:03;1.43;63.21
75685;HTU21D;64298;46.050;38.164;2024-02-26T01:50:29;1.42;63.29
75685;HTU21D;64298;46.050;38.164;2024-02-26T01:52:56;1.41;63.20
75685;HTU21D;64298;46.050;38.164;2024-02-26T01:55:23;1.38;63.35
75685;HTU21D;64298;46.050;38.164;2024-02-26T01:57:50;1.34;63.37
75685;HTU21D;64298;46.050;38.164;2024-02-26T02:00:18;1.32;63.64
75685;HTU21D;64298;46.050;38.164;2024-02-26T02:02:45;1.29;63.51
75685;HTU21D;64298;46.050;38.164;2024-02-26T02:05:17;1.28;63.41
75685;HTU21D;64298;46.050;38.164;2024-02-26T02:07:43;1.26;63.66
75685;HTU21D;64298;46.050;38.164;2024-02-26T02:10:10;1.22;63.80
75685;HTU21D;64298;46.050;38.164;2024-02-26T02:12:36;1.20;63.66
75685;HTU21D;64298;46.050;38.164;2024-02-26T02:15:04;1.18;63.81
75685;HTU21D;64298;46.050;38.164;2024-02-26T02:17:31;1.16;63.98
75685;HTU21D;64298;46.050;38.164;2024-02-26T02:19:57;1.12;64.08
75685;HTU21D;64298;46.050;38.164;2024-02-26T02:22:23;1.09;64.20
75685;HTU21D;64298;46.050;38.164;2024-02-26T02:24:50;1.07;64.14
75685;HTU21D;64298;46.050;38.164;2024-02-26T02:27:16;1.04;64.22
75685;HTU21D;64298;46.050;38.164;2024-02-26T02:29:43;1.03;64.16
75685;HTU21D;64298;46.050;38.164;2024-02-26T02:32:09;1.01;64.24
75685;HTU21D;64298;46.050;38.164;2024-02-26T02:34:35;0.98;64.12
75685;HTU21D;64298;46.050;38.164;2024-02-26T02:37:01;0.96;64.51
75685;HTU21D;64298;46.050;38.164;2024-02-26T02:39:27;0.94;64.40
75685;HTU21D;64298;46.050;38.164;2024-02-26T02:41:53;0.91;64.69
75685;HTU21D;64298;46.050;38.164;2024-02-26T02:44:19;0.89;64.78
75685;HTU21D;64298;46.050;38.164;2024-02-26T02:46:45;0.83;65.09
75685;HTU21D;64298;46.050;38.164;2024-02-26T02:49:11;0.83;64.73
75685;HTU21D;64298;46.050;38.164;2024-02-26T02:51:37;0.81;64.84
75685;HTU21D;64298;46.050;38.164;2024-02-26T02:54:03;0.76;65.30
75685;HTU21D;64298;46.050;38.164;2024-02-26T02:56:29;0.73;65.22
75685;HTU21D;64298;46.050;38.164;2024-02-26T02:58:55;0.71;65.30
75685;HTU21D;64298;46.050;38.164;2024-02-26T03:01:21;0.68;65.21
75685;HTU21D;64298;46.050;38.164;2024-02-26T03:03:47;0.69;65.15
75685;HTU21D;64298;46.050;38.164;2024-02-26T03:06:13;0.67;65.13
75685;HTU21D;64298;46.050;38.164;2024-02-26T03:08:39;0.68;65.26
75685;HTU21D;64298;46.050;38.164;2024-02-26T03:11:07;0.66;65.19
75685;HTU21D;64298;46.050;38.164;2024-02-26T03:13:33;0.65;65.20
75685;HTU21D;64298;46.050;38.164;2024-02-26T03:16:04;0.63;65.20
75685;HTU21D;64298;46.050;38.164;2024-02-26T03:18:49;0.63;65.07
75685;HTU21D;64298;46.050;38.164;2024-02-26T03:21:15;0.61;65.26
75685;HTU21D;64298;46.050;38.164;2024-02-26T03:23:41;0.61;65.20
75685;HTU21D;64298;46.050;38.164;2024-02-26T03:26:07;0.58;65.14
75685;HTU21D;64298;46.050;38.164;2024-02-26T03:28:34;0.54;65.25
75685;HTU21D;64298;46.050;38.164;2024-02-26T03:31:01;0.52;65.48
75685;HTU21D;64298;46.050;38.164;2024-02-26T03:33:27;0.47;65.75
75685;HTU21D;64298;46.050;38.164;2024-02-26T03:35:53;0.43;65.76
75685;HTU21D;64298;46.050;38.164;2024-02-26T03:38:19;0.40;65.79
75685;HTU21D;64298;46.050;38.164;2024-02-26T03:40:45;0.37;65.83
75685;HTU21D;64298;46.050;38.164;2024-02-26T03:43:11;0.33;65.89
75685;HTU21D;64298;46.050;38.164;2024-02-26T03:45:56;0.32;66.04
75685;HTU21D;64298;46.050;38.164;2024-02-26T03:48:22;0.30;66.02
75685;HTU21D;64298;46.050;38.164;2024-02-26T03:50:48;0.31;65.88
75685;HTU21D;64298;46.050;38.164;2024-02-26T03:53:32;0.28;65.95
75685;HTU21D;64298;46.050;38.164;2024-02-26T03:56:03;0.28;65.87
75685;HTU21D;64298;46.050;38.164;2024-02-26T03:58:29;0.25;65.90
75685;HTU21D;64298;46.050;38.164;2024-02-26T04:01:13;0.23;65.91
75685;HTU21D;64298;46.050;38.164;2024-02-26T04:03:39;0.23;65.79
75685;HTU21D;64298;46.050;38.164;2024-02-26T04:06:09;0.22;65.95
75685;HTU21D;64298;46.050;38.164;2024-02-26T04:08:36;0.21;65.91
75685;HTU21D;64298;46.050;38.164;2024-02-26T04:11:03;0.20;65.96
75685;HTU21D;64298;46.050;38.164;2024-02-26T04:13:33;0.16;66.26
75685;HTU21D;64298;46.050;38.164;2024-02-26T04:16:00;0.15;66.03
75685;HTU21D;64298;46.050;38.164;2024-02-26T04:18:28;0.13;66.23
75685;HTU21D;64298;46.050;38.164;2024-02-26T04:20:54;0.10;66.13
75685;HTU21D;64298;46.050;38.164;2024-02-26T04:23:20;0.09;66.15
75685;HTU21D;64298;46.050;38.164;2024-02-26T04:25:46;0.08;66.29
75685;HTU21D;64298;46.050;38.164;2024-02-26T04:28:12;0.07;66.20
75685;HTU21D;64298;46.050;38.164;2024-02-26T04:30:38;0.03;66.33
75685;HTU21D;64298;46.050;38.164;2024-02-26T04:33:04;0.03;66.35
75685;HTU21D;64298;46.050;38.164;2024-02-26T04:35:31;0.04;66.32
75685;HTU21D;64298;46.050;38.164;2024-02-26T04:37:57;0.03;66.40
75685;HTU21D;64298;46.050;38.164;2024-02-26T04:40:23;0.05;66.19
75685;HTU21D;64298;46.050;38.164;2024-02-26T04:42:49;0.07;66.11
75685;HTU21D;64298;46.050;38.164;2024-02-26T04:45:15;0.09;66.12
75685;HTU21D;64298;46.050;38.164;2024-02-26T04:47:41;0.12;65.97
75685;HTU21D;64298;46.050;38.164;2024-02-26T04:50:08;0.16;65.88
75685;HTU21D;64298;46.050;38.164;2024-02-26T04:52:34;0.18;65.80
75685;HTU21D;64298;46.050;38.164;2024-02-26T04:55:00;0.17;65.86
75685;HTU21D;64298;46.050;38.164;2024-02-26T04:57:26;0.18;65.82
75685;HTU21D;64298;46.050;38.164;2024-02-26T04:59:52;0.21;65.80
75685;HTU21D;64298;46.050;38.164;2024-02-26T05:02:18;0.25;65.66
75685;HTU21D;64298;46.050;38.164;2024-02-26T05:04:44;0.29;65.50
75685;HTU21D;64298;46.050;38.164;2024-02-26T05:07:28;0.33;65.50
75685;HTU21D;64298;46.050;38.164;2024-02-26T05:09:54;0.34;65.50
75685;HTU21D;64298;46.050;38.164;2024-02-26T05:12:21;0.37;65.34
75685;HTU21D;64298;46.050;38.164;2024-02-26T05:14:47;0.39;65.42
75685;HTU21D;64298;46.050;38.164;2024-02-26T05:17:13;0.44;65.36
75685;HTU21D;64298;46.050;38.164;2024-02-26T05:19:39;0.49;65.27
75685;HTU21D;64298;46.050;38.164;2024-02-26T05:22:05;0.51;65.17
75685;HTU21D;64298;46.050;38.164;2024-02-26T05:24:31;0.54;65.00
75685;HTU21D;64298;46.050;38.164;2024-02-26T05:26:57;0.57;64.95
75685;HTU21D;64298;46.050;38.164;2024-02-26T05:29:23;0.62;64.83
75685;HTU21D;64298;46.050;38.164;2024-02-26T05:31:49;0.66;64.77
75685;HTU21D;64298;46.050;38.164;2024-02-26T05:34:15;0.74;64.63
75685;HTU21D;64298;46.050;38.164;2024-02-26T05:36:41;0.80;64.50
75685;HTU21D;64298;46.050;38.164;2024-02-26T05:39:07;0.87;64.33
75685;HTU21D;64298;46.050;38.164;2024-02-26T05:41:32;0.90;64.14
75685;HTU21D;64298;46.050;38.164;2024-02-26T05:43:59;0.96;64.05
75685;HTU21D;64298;46.050;38.164;2024-02-26T05:46:25;1.01;63.92
75685;HTU21D;64298;46.050;38.164;2024-02-26T05:48:53;1.06;63.82
75685;HTU21D;64298;46.050;38.164;2024-02-26T05:51:18;1.11;63.65
75685;HTU21D;64298;46.050;38.164;2024-02-26T05:53:45;1.17;63.50
75685;HTU21D;64298;46.050;38.164;2024-02-26T05:56:12;1.23;63.28
75685;HTU21D;64298;46.050;38.164;2024-02-26T05:58:38;1.29;63.15
75685;HTU21D;64298;46.050;38.164;2024-02-26T06:01:04;1.33;62.98
75685;HTU21D;64298;46.050;38.164;2024-02-26T06:03:31;1.40;62.89
75685;HTU21D;64298;46.050;38.164;2024-02-26T06:05:58;1.46;62.77
75685;HTU21D;64298;46.050;38.164;2024-02-26T06:08:24;1.54;62.63
75685;HTU21D;64298;46.050;38.164;2024-02-26T06:10:50;1.62;62.42
75685;HTU21D;64298;46.050;38.164;2024-02-26T06:13:16;1.66;62.15
75685;HTU21D;64298;46.050;38.164;2024-02-26T06:15:42;1.70;61.99
75685;HTU21D;64298;46.050;38.164;2024-02-26T06:18:07;1.78;61.96
75685;HTU21D;64298;46.050;38.164;2024-02-26T06:20:33;1.87;61.70
75685;HTU21D;64298;46.050;38.164;2024-02-26T06:22:59;1.94;61.45
75685;HTU21D;64298;46.050;38.164;2024-02-26T06:25:25;1.96;61.18
75685;HTU21D;64298;46.050;38.164;2024-02-26T06:27:51;2.01;61.25
75685;HTU21D;64298;46.050;38.164;2024-02-26T06:30:17;2.11;61.07
75685;HTU21D;64298;46.050;38.164;2024-02-26T06:32:43;2.19;60.93
75685;HTU21D;64298;46.050;38.164;2024-02-26T06:35:09;2.26;60.60
75685;HTU21D;64298;46.050;38.164;2024-02-26T06:37:37;2.31;60.45
75685;HTU21D;64298;46.050;38.164;2024-02-26T06:40:03;2.39;60.23
75685;HTU21D;64298;46.050;38.164;2024-02-26T06:42:32;2.45;59.77
75685;HTU21D;64298;46.050;38.164;2024-02-26T06:44:58;2.53;59.81
75685;HTU21D;64298;46.050;38.164;2024-02-26T06:47:24;2.61;59.38
75685;HTU21D;64298;46.050;38.164;2024-02-26T06:49:51;2.72;59.48
75685;HTU21D;64298;46.050;38.164;2024-02-26T06:52:17;2.90;59.28
75685;HTU21D;64298;46.050;38.164;2024-02-26T06:54:43;3.05;58.86
75685;HTU21D;64298;46.050;38.164;2024-02-26T06:57:10;3.14;58.27
75685;HTU21D;64298;46.050;38.164;2024-02-26T06:59:36;3.18;57.96
75685;HTU21D;64298;46.050;38.164;2024-02-26T07:02:02;3.27;58.14
75685;HTU21D;64298;46.050;38.164;2024-02-26T07:04:28;3.42;57.41
75685;HTU21D;64298;46.050;38.164;2024-02-26T07:06:54;3.42;57.03
75685;HTU21D;64298;46.050;38.164;2024-02-26T07:09:20;3.46;57.40
75685;HTU21D;64298;46.050;38.164;2024-02-26T07:11:46;3.62;56.93
75685;HTU21D;64298;46.050;38.164;2024-02-26T07:14:12;3.71;56.76
75685;HTU21D;64298;46.050;38.164;2024-02-26T07:16:38;3.77;56.61
75685;HTU21D;64298;46.050;38.164;2024-02-26T07:19:04;3.87;56.30
75685;HTU21D;64298;46.050;38.164;2024-02-26T07:21:30;4.01;56.28
75685;HTU21D;64298;46.050;38.164;2024-02-26T07:23:56;4.17;55.64
75685;HTU21D;64298;46.050;38.164;2024-02-26T07:26:23;4.28;55.40
75685;HTU21D;64298;46.050;38.164;2024-02-26T07:28:51;4.34;54.75
75685;HTU21D;64298;46.050;38.164;2024-02-26T07:31:18;4.26;54.24
75685;HTU21D;64298;46.050;38.164;2024-02-26T07:33:43;4.33;54.82
75685;HTU21D;64298;46.050;38.164;2024-02-26T07:36:09;4.53;54.50
75685;HTU21D;64298;46.050;38.164;2024-02-26T07:38:35;4.63;53.97
75685;HTU21D;64298;46.050;38.164;2024-02-26T07:41:02;4.76;54.10
75685;HTU21D;64298;46.050;38.164;2024-02-26T07:43:29;4.87;53.72
75685;HTU21D;64298;46.050;38.164;2024-02-26T07:45:55;4.89;52.82
75685;HTU21D;64298;46.050;38.164;2024-02-26T07:48:21;4.87;52.43
75685;HTU21D;64298;46.050;38.164;2024-02-26T07:50:47;4.80;53.04
75685;HTU21D;64298;46.050;38.164;2024-02-26T07:53:13;4.92;53.36
75685;HTU21D;64298;46.050;38.164;2024-02-26T07:55:39;5.12;53.13
75685;HTU21D;64298;46.050;38.164;2024-02-26T07:58:05;5.33;52.58
75685;HTU21D;64298;46.050;38.164;2024-02-26T08:00:31;5.37;51.40
75685;HTU21D;64298;46.050;38.164;2024-02-26T08:02:57;5.35;51.87
75685;HTU21D;64298;46.050;38.164;2024-02-26T08:05:24;5.40;51.51
75685;HTU21D;64298;46.050;38.164;2024-02-26T08:07:50;5.48;51.37
75685;HTU21D;64298;46.050;38.164;2024-02-26T08:10:35;5.61;51.01
75685;HTU21D;64298;46.050;38.164;2024-02-26T08:13:01;5.67;50.82
75685;HTU21D;64298;46.050;38.164;2024-02-26T08:15:34;5.71;50.79
75685;HTU21D;64298;46.050;38.164;2024-02-26T08:18:04;5.81;50.94
75685;HTU21D;64298;46.050;38.164;2024-02-26T08:20:30;5.97;50.86
75685;HTU21D;64298;46.050;38.164;2024-02-26T08:22:57;6.11;50.45
75685;HTU21D;64298;46.050;38.164;2024-02-26T08:25:24;6.15;50.58
75685;HTU21D;64298;46.050;38.164;2024-02-26T08:27:50;6.27;50.33
75685;HTU21D;64298;46.050;38.164;2024-02-26T08:30:16;6.39;49.91
75685;HTU21D;64298;46.050;38.164;2024-02-26T08:32:49;6.43;49.39
75685;HTU21D;64298;46.050;38.164;2024-02-26T08:35:33;6.41;49.27
75685;HTU21D;64298;46.050;38.164;2024-02-26T08:37:59;6.49;49.31
75685;HTU21D;64298;46.050;38.164;2024-02-26T08:40:25;6.60;49.08
75685;HTU21D;64298;46.050;38.164;2024-02-26T08:43:10;6.76;49.37
75685;HTU21D;64298;46.050;38.164;2024-02-26T08:45:36;6.95;48.30
75685;HTU21D;64298;46.050;38.164;2024-02-26T08:48:01;7.11;48.65
75685;HTU21D;64298;46.050;38.164;2024-02-26T08:50:28;7.31;48.34
75685;HTU21D;64298;46.050;38.164;2024-02-26T08:52:54;7.41;47.46
75685;HTU21D;64298;46.050;38.164;2024-02-26T08:55:20;7.48;47.59
75685;HTU21D;64298;46.050;38.164;2024-02-26T08:57:47;7.61;47.59
75685;HTU21D;64298;46.050;38.164;2024-02-26T09:00:14;7.70;46.75
75685;HTU21D;64298;46.050;38.164;2024-02-26T09:02:41;7.77;47.01
75685;HTU21D;64298;46.050;38.164;2024-02-26T09:05:09;7.89;46.80
75685;HTU21D;64298;46.050;38.164;2024-02-26T09:07:35;8.06;46.43
75685;HTU21D;64298;46.050;38.164;2024-02-26T09:10:02;8.15;46.30
75685;HTU21D;64298;46.050;38.164;2024-02-26T09:12:28;8.23;46.53
75685;HTU21D;64298;46.050;38.164;2024-02-26T09:14:54;8.38;45.65
75685;HTU21D;64298;46.050;38.164;2024-02-26T09:17:21;8.43;45.48
75685;HTU21D;64298;46.050;38.164;2024-02-26T09:19:48;8.51;45.20
75685;HTU21D;64298;46.050;38.164;2024-02-26T09:22:14;8.59;44.67
75685;HTU21D;64298;46.050;38.164;2024-02-26T09:24:40;8.61;45.02
75685;HTU21D;64298;46.050;38.164;2024-02-26T09:27:06;8.66;44.60
75685;HTU21D;64298;46.050;38.164;2024-02-26T09:29:32;8.67;44.48
75685;HTU21D;64298;46.050;38.164;2024-02-26T09:31:58;8.80;45.00
75685;HTU21D;64298;46.050;38.164;2024-02-26T09:34:24;8.93;43.94
75685;HTU21D;64298;46.050;38.164;2024-02-26T09:36:50;9.05;43.70
75685;HTU21D;64298;46.050;38.164;2024-02-26T09:39:16;9.20;44.07
75685;HTU21D;64298;46.050;38.164;2024-02-26T09:41:48;9.38;43.39
75685;HTU21D;64298;46.050;38.164;2024-02-26T09:44:19;9.48;42.85
75685;HTU21D;64298;46.050;38.164;2024-02-26T09:46:48;9.56;42.42
75685;HTU21D;64298;46.050;38.164;2024-02-26T09:49:19;9.56;42.20
75685;HTU21D;64298;46.050;38.164;2024-02-26T09:51:49;9.63;42.15
75685;HTU21D;64298;46.050;38.164;2024-02-26T09:54:16;9.65;41.62
75685;HTU21D;64298;46.050;38.164;2024-02-26T09:56:43;9.65;41.27
75685;HTU21D;64298;46.050;38.164;2024-02-26T09:59:15;9.77;42.03
75685;HTU21D;64298;46.050;38.164;2024-02-26T10:01:44;9.92;40.84
75685;HTU21D;64298;46.050;38.164;2024-02-26T10:04:11;9.97;40.78
75685;HTU21D;64298;46.050;38.164;2024-02-26T10:06:37;10.08;41.07
75685;HTU21D;64298;46.050;38.164;2024-02-26T10:09:03;10.23;40.97
75685;HTU21D;64298;46.050;38.164;2024-02-26T10:11:33;10.34;40.27
75685;HTU21D;64298;46.050;38.164;2024-02-26T10:13:59;10.42;40.49
75685;HTU21D;64298;46.050;38.164;2024-02-26T10:16:25;10.49;39.76
75685;HTU21D;64298;46.050;38.164;2024-02-26T10:18:52;10.50;39.80
75685;HTU21D;64298;46.050;38.164;2024-02-26T10:21:22;10.60;39.29
75685;HTU21D;64298;46.050;38.164;2024-02-26T10:23:49;10.72;39.76
75685;HTU21D;64298;46.050;38.164;2024-02-26T10:26:16;10.82;38.51
75685;HTU21D;64298;46.050;38.164;2024-02-26T10:28:43;10.87;38.72
75685;HTU21D;64298;46.050;38.164;2024-02-26T10:31:10;11.00;38.80
75685;HTU21D;64298;46.050;38.164;2024-02-26T10:33:37;11.15;39.01
75685;HTU21D;64298;46.050;38.164;2024-02-26T10:36:05;11.25;38.46
75685;HTU21D;64298;46.050;38.164;2024-02-26T10:38:32;11.43;38.91
75685;HTU21D;64298;46.050;38.164;2024-02-26T10:40:59;11.58;37.50
75685;HTU21D;64298;46.050;38.164;2024-02-26T10:43:28;11.63;37.98
75685;HTU21D;64298;46.050;38.164;2024-02-26T10:45:57;11.75;37.58
75685;HTU21D;64298;46.050;38.164;2024-02-26T10:48:23;11.92;37.45
75685;HTU21D;64298;46.050;38.164;2024-02-26T10:50:49;12.03;36.85
75685;HTU21D;64298;46.050;38.164;2024-02-26T10:53:28;12.13;36.34
75685;HTU21D;64298;46.050;38.164;2024-02-26T10:55:59;12.22;36.85
75685;HTU21D;64298;46.050;38.164;2024-02-26T10:58:27;12.31;36.95
75685;HTU21D;64298;46.050;38.164;2024-02-26T11:00:56;12.30;35.05
75685;HTU21D;64298;46.050;38.164;2024-02-26T11:03:23;12.16;34.75
75685;HTU21D;64298;46.050;38.164;2024-02-26T11:05:50;12.14;35.73
75685;HTU21D;64298;46.050;38.164;2024-02-26T11:08:18;12.19;34.25
75685;HTU21D;64298;46.050;38.164;2024-02-26T11:10:47;12.17;34.09
75685;HTU21D;64298;46.050;38.164;2024-02-26T11:13:17;12.17;34.81
75685;HTU21D;64298;46.050;38.164;2024-02-26T11:15:46;12.28;34.43
75685;HTU21D;64298;46.050;38.164;2024-02-26T11:18:15;12.47;35.81
75685;HTU21D;64298;46.050;38.164;2024-02-26T11:20:43;12.61;33.95
75685;HTU21D;64298;46.050;38.164;2024-02-26T11:23:16;12.60;33.75
75685;HTU21D;64298;46.050;38.164;2024-02-26T11:25:42;12.66;33.87
75685;HTU21D;64298;46.050;38.164;2024-02-26T11:28:11;12.72;33.93
75685;HTU21D;64298;46.050;38.164;2024-02-26T11:30:40;12.70;33.43
75685;HTU21D;64298;46.050;38.164;2024-02-26T11:33:10;12.70;33.85
75685;HTU21D;64298;46.050;38.164;2024-02-26T11:35:38;12.77;32.50
75685;HTU21D;64298;46.050;38.164;2024-02-26T11:38:05;12.76;33.39
75685;HTU21D;64298;46.050;38.164;2024-02-26T11:40:37;12.84;33.92
75685;HTU21D;64298;46.050;38.164;2024-02-26T11:43:05;12.96;33.70
75685;HTU21D;64298;46.050;38.164;2024-02-26T11:48:12;13.20;33.68
75685;HTU21D;64298;46.050;38.164;2024-02-26T11:50:40;13.31;33.19
75685;HTU21D;64298;46.050;38.164;2024-02-26T11:53:31;13.32;32.99
75685;HTU21D;64298;46.050;38.164;2024-02-26T11:58:41;13.48;33.25
75685;HTU21D;64298;46.050;38.164;2024-02-26T12:01:45;13.58;33.39
75685;HTU21D;64298;46.050;38.164;2024-02-26T12:04:25;13.66;32.28
75685;HTU21D;64298;46.050;38.164;2024-02-26T12:06:56;13.58;32.96
75685;HTU21D;64298;46.050;38.164;2024-02-26T12:09:36;13.65;32.95
75685;HTU21D;64298;46.050;38.164;2024-02-26T12:12:04;13.74;31.83
75685;HTU21D;64298;46.050;38.164;2024-02-26T12:14:33;13.70;31.74
75685;HTU21D;64298;46.050;38.164;2024-02-26T12:16:59;13.70;32.02
75685;HTU21D;64298;46.050;38.164;2024-02-26T12:19:25;13.75;31.25
75685;HTU21D;64298;46.050;38.164;2024-02-26T12:21:53;13.74;30.74
75685;HTU21D;64298;46.050;38.164;2024-02-26T12:24:21;13.74;31.35
75685;HTU21D;64298;46.050;38.164;2024-02-26T12:26:48;13.76;31.88
75685;HTU21D;64298;46.050;38.164;2024-02-26T12:29:14;13.77;31.07
75685;HTU21D;64298;46.050;38.164;2024-02-26T12:31:40;13.77;31.65
75685;HTU21D;64298;46.050;38.164;2024-02-26T12:34:07;13.76;31.06
75685;HTU21D;64298;46.050;38.164;2024-02-26T12:36:35;13.78;31.51
75685;HTU21D;64298;46.050;38.164;2024-02-26T12:39:05;13.71;30.76
75685;HTU21D;64298;46.050;38.164;2024-02-26T12:41:33;13.70;30.87
75685;HTU21D;64298;46.050;38.164;2024-02-26T12:44:00;13.73;31.05
75685;HTU21D;64298;46.050;38.164;2024-02-26T12:46:26;13.84;31.45
75685;HTU21D;64298;46.050;38.164;2024-02-26T12:48:54;13.96;31.38
75685;HTU21D;64298;46.050;38.164;2024-02-26T12:51:24;14.00;30.99
75685;HTU21D;64298;46.050;38.164;2024-02-26T12:53:50;14.01;30.32
75685;HTU21D;64298;46.050;38.164;2024-02-26T12:56:18;13.98;30.00
75685;HTU21D;64298;46.050;38.164;2024-02-26T12:58:45;13.97;30.29
75685;HTU21D;64298;46.050;38.164;2024-02-26T13:01:17;14.03;31.22
75685;HTU21D;64298;46.050;38.164;2024-02-26T13:03:43;14.10;30.45
75685;HTU21D;64298;46.050;38.164;2024-02-26T13:06:10;14.11;30.33
75685;HTU21D;64298;46.050;38.164;2024-02-26T13:08:59;14.04;30.88
75685;HTU21D;64298;46.050;38.164;2024-02-26T13:11:25;14.12;31.04
75685;HTU21D;64298;46.050;38.164;2024-02-26T13:13:51;14.18;30.54
75685;HTU21D;64298;46.050;38.164;2024-02-26T13:16:17;14.18;30.17
75685;HTU21D;64298;46.050;38.164;2024-02-26T13:18:43;14.06;29.71
75685;HTU21D;64298;46.050;38.164;2024-02-26T13:21:12;14.04;30.23
75685;HTU21D;64298;46.050;38.164;2024-02-26T13:23:39;14.06;29.39
75685;HTU21D;64298;46.050;38.164;2024-02-26T13:26:06;14.11;30.35
75685;HTU21D;64298;46.050;38.164;2024-02-26T13:28:32;14.29;31.08
75685;HTU21D;64298;46.050;38.164;2024-02-26T13:30:58;14.50;30.59
75685;HTU21D;64298;46.050;38.164;2024-02-26T13:33:29;14.65;29.90
75685;HTU21D;64298;46.050;38.164;2024-02-26T13:35:56;14.81;30.06
75685;HTU21D;64298;46.050;38.164;2024-02-26T13:38:23;15.09;29.81
75685;HTU21D;64298;46.050;38.164;2024-02-26T13:40:50;15.37;29.38
75685;HTU21D;64298;46.050;38.164;2024-02-26T13:43:16;15.63;28.82
75685;HTU21D;64298;46.050;38.164;2024-02-26T13:45:43;15.75;29.05
75685;HTU21D;64298;46.050;38.164;2024-02-26T13:48:10;15.48;28.99
75685;HTU21D;64298;46.050;38.164;2024-02-26T13:50:37;15.15;30.03
75685;HTU21D;64298;46.050;38.164;2024-02-26T13:53:04;14.97;30.33
75685;HTU21D;64298;46.050;38.164;2024-02-26T13:55:30;14.71;30.48
75685;HTU21D;64298;46.050;38.164;2024-02-26T13:57:58;14.71;30.87
75685;HTU21D;64298;46.050;38.164;2024-02-26T14:00:25;14.89;30.26
75685;HTU21D;64298;46.050;38.164;2024-02-26T14:02:51;14.88;30.00
75685;HTU21D;64298;46.050;38.164;2024-02-26T14:05:36;14.75;30.96
75685;HTU21D;64298;46.050;38.164;2024-02-26T14:08:02;14.93;30.64
75685;HTU21D;64298;46.050;38.164;2024-02-26T14:10:28;15.02;29.87
75685;HTU21D;64298;46.050;38.164;2024-02-26T14:12:54;15.01;30.34
75685;HTU21D;64298;46.050;38.164;2024-02-26T14:15:20;15.13;29.92
75685;HTU21D;64298;46.050;38.164;2024-02-26T14:17:46;15.16;30.08
75685;HTU21D;64298;46.050;38.164;2024-02-26T14:20:19;14.93;30.50
75685;HTU21D;64298;46.050;38.164;2024-02-26T14:22:44;14.83;30.91
75685;HTU21D;64298;46.050;38.164;2024-02-26T14:25:10;14.91;30.91
75685;HTU21D;64298;46.050;38.164;2024-02-26T14:27:36;14.97;30.83
75685;HTU21D;64298;46.050;38.164;2024-02-26T14:30:03;14.84;30.85
75685;HTU21D;64298;46.050;38.164;2024-02-26T14:32:30;14.77;31.41
75685;HTU21D;64298;46.050;38.164;2024-02-26T14:35:00;14.73;31.40
75685;HTU21D;64298;46.050;38.164;2024-02-26T14:37:26;14.49;30.81
75685;HTU21D;64298;46.050;38.164;2024-02-26T14:39:52;14.20;31.63
75685;HTU21D;64298;46.050;38.164;2024-02-26T14:42:18;13.85;32.12
75685;HTU21D;64298;46.050;38.164;2024-02-26T14:44:44;13.50;32.63
75685;HTU21D;64298;46.050;38.164;2024-02-26T14:47:13;13.08;32.06
75685;HTU21D;64298;46.050;38.164;2024-02-26T14:49:40;12.76;32.73
75685;HTU21D;64298;46.050;38.164;2024-02-26T14:52:06;12.49;32.97
75685;HTU21D;64298;46.050;38.164;2024-02-26T14:54:32;12.22;33.02
75685;HTU21D;64298;46.050;38.164;2024-02-26T14:57:05;11.97;33.57
75685;HTU21D;64298;46.050;38.164;2024-02-26T14:59:35;11.77;34.17
75685;HTU21D;64298;46.050;38.164;2024-02-26T15:02:02;11.59;34.28
75685;HTU21D;64298;46.050;38.164;2024-02-26T15:04:28;11.41;34.56
75685;HTU21D;64298;46.050;38.164;2024-02-26T15:06:54;11.27;34.94
75685;HTU21D;64298;46.050;38.164;2024-02-26T15:09:20;11.14;35.13
75685;HTU21D;64298;46.050;38.164;2024-02-26T15:11:46;10.97;34.79
75685;HTU21D;64298;46.050;38.164;2024-02-26T15:14:12;10.81;34.95
75685;HTU21D;64298;46.050;38.164;2024-02-26T15:16:38;10.67;35.20